sensor_id;sensor_type;location;lat;lon;timestamp;pressure;altitude;pressure_sealevel;temperature;humidity
13765;BME280;6953;48.810;9.204;2023-04-10T00:02:17;99359.97;;;6.59;87.28
13765;BME280;6953;48.810;9.204;2023-04-10T00:04:42;99409.38;;;6.64;87.39
13765;BME280;6953;48.810;9.204;2023-04-10T00:07:07;99361.88;;;6.53;88.08
13765;BME280;6953;48.810;9.204;2023-04-10T00:09:33;99303.72;;;6.19;88.06
13765;BME280;6953;48.810;9.204;2023-04-10T00:11:58;99076.63;;;4.75;88.26
13765;BME280;6953;48.810;9.204;2023-04-10T00:14:24;99378.59;;;6.44;88.62
13765;BME280;6953;48.810;9.204;2023-04-10T00:16:50;99418.75;;;6.37;88.93
13765;BME280;6953;48.810;9.204;2023-04-10T00:19:16;99299.34;;;5.86;89.03
13765;BME280;6953;48.810;9.204;2023-04-10T00:21:42;99369.59;;;6.22;89.63
13765;BME280;6953;48.810;9.204;2023-04-10T00:24:07;99370.59;;;6.18;91.05
13765;BME280;6953;48.810;9.204;2023-04-10T00:26:34;99366.22;;;6.19;91.11
13765;BME280;6953;48.810;9.204;2023-04-10T00:28:59;99303.06;;;5.75;90.89
13765;BME280;6953;48.810;9.204;2023-04-10T00:31:25;99351.81;;;6.05;90.63
13765;BME280;6953;48.810;9.204;2023-04-10T00:33:50;99113.31;;;4.61;91.41
13765;BME280;6953;48.810;9.204;2023-04-10T00:36:17;99264.53;;;5.54;91.23
13765;BME280;6953;48.810;9.204;2023-04-10T00:38:42;99123.69;;;4.61;91.43
13765;BME280;6953;48.810;9.204;2023-04-10T00:41:08;99374.38;;;6.06;92.19
13765;BME280;6953;48.810;9.204;2023-04-10T00:43:33;99275.97;;;5.48;91.54
13765;BME280;6953;48.810;9.204;2023-04-10T00:45:58;99329.06;;;5.78;91.81
13765;BME280;6953;48.810;9.204;2023-04-10T00:48:25;99348.66;;;5.92;92.42
13765;BME280;6953;48.810;9.204;2023-04-10T00:50:50;99350.81;;;5.74;92.21
13765;BME280;6953;48.810;9.204;2023-04-10T00:53:15;99342.03;;;5.81;92.30
13765;BME280;6953;48.810;9.204;2023-04-10T00:55:42;99344.63;;;5.81;93.39
13765;BME280;6953;48.810;9.204;2023-04-10T00:58:07;99338.66;;;5.74;93.20
13765;BME280;6953;48.810;9.204;2023-04-10T01:00:35;99356.78;;;5.80;93.06
13765;BME280;6953;48.810;9.204;2023-04-10T01:03:00;99366.38;;;5.77;93.42
13765;BME280;6953;48.810;9.204;2023-04-10T01:05:32;99169.47;;;4.68;94.11
13765;BME280;6953;48.810;9.204;2023-04-10T01:08:16;99374.25;;;5.72;94.52
13765;BME280;6953;48.810;9.204;2023-04-10T01:10:56;99054.31;;;3.89;94.25
13765;BME280;6953;48.810;9.204;2023-04-10T01:13:31;99257.84;;;5.06;95.17
13765;BME280;6953;48.810;9.204;2023-04-10T01:16:21;99304.94;;;5.32;94.58
13765;BME280;6953;48.810;9.204;2023-04-10T01:19:11;99395.97;;;5.73;94.31
13765;BME280;6953;48.810;9.204;2023-04-10T01:21:40;99365.66;;;5.70;95.53
13765;BME280;6953;48.810;9.204;2023-04-10T01:24:35;99270.69;;;5.13;95.12
13765;BME280;6953;48.810;9.204;2023-04-10T01:27:07;99367.41;;;5.70;95.10
13765;BME280;6953;48.810;9.204;2023-04-10T01:29:35;99366.56;;;5.68;95.53
13765;BME280;6953;48.810;9.204;2023-04-10T01:32:11;99384.97;;;5.60;95.97
13765;BME280;6953;48.810;9.204;2023-04-10T01:34:41;99352.91;;;5.60;95.61
13765;BME280;6953;48.810;9.204;2023-04-10T01:37:12;99300.16;;;5.12;94.83
13765;BME280;6953;48.810;9.204;2023-04-10T01:39:38;99363.53;;;5.49;95.38
13765;BME280;6953;48.810;9.204;2023-04-10T01:42:06;99392.25;;;5.45;96.19
13765;BME280;6953;48.810;9.204;2023-04-10T01:44:33;99386.47;;;5.31;95.52
13765;BME280;6953;48.810;9.204;2023-04-10T01:47:01;99303.81;;;5.04;95.77
13765;BME280;6953;48.810;9.204;2023-04-10T01:49:27;99361.31;;;5.31;95.86
13765;BME280;6953;48.810;9.204;2023-04-10T01:51:55;99356.22;;;5.27;96.26
13765;BME280;6953;48.810;9.204;2023-04-10T01:54:26;99109.78;;;3.85;95.85
13765;BME280;6953;48.810;9.204;2023-04-10T01:56:52;99339.31;;;5.07;96.31
13765;BME280;6953;48.810;9.204;2023-04-10T01:59:18;98945.94;;;2.76;96.69
13765;BME280;6953;48.810;9.204;2023-04-10T02:01:43;99302.69;;;4.76;97.45
13765;BME280;6953;48.810;9.204;2023-04-10T02:04:08;99376.63;;;5.04;97.23
13765;BME280;6953;48.810;9.204;2023-04-10T02:06:50;99352.38;;;5.04;98.57
13765;BME280;6953;48.810;9.204;2023-04-10T02:09:24;99334.34;;;4.96;98.75
13765;BME280;6953;48.810;9.204;2023-04-10T02:12:05;99169.38;;;3.90;98.33
13765;BME280;6953;48.810;9.204;2023-04-10T02:14:33;99346.56;;;4.91;98.69
13765;BME280;6953;48.810;9.204;2023-04-10T02:17:01;99107.13;;;3.43;98.72
13765;BME280;6953;48.810;9.204;2023-04-10T02:19:27;99337.31;;;4.78;99.00
13765;BME280;6953;48.810;9.204;2023-04-10T02:21:56;99234.75;;;4.08;98.77
13765;BME280;6953;48.810;9.204;2023-04-10T02:24:23;99059.44;;;3.03;99.36
13765;BME280;6953;48.810;9.204;2023-04-10T02:26:51;99352.97;;;4.74;100.00
13765;BME280;6953;48.810;9.204;2023-04-10T02:29:17;99259.72;;;4.16;100.00
13765;BME280;6953;48.810;9.204;2023-04-10T02:31:44;99353.03;;;4.71;100.00
13765;BME280;6953;48.810;9.204;2023-04-10T02:34:09;99358.22;;;4.72;100.00
13765;BME280;6953;48.810;9.204;2023-04-10T02:36:38;99324.78;;;4.54;100.00
13765;BME280;6953;48.810;9.204;2023-04-10T02:39:05;99282.81;;;4.31;100.00
13765;BME280;6953;48.810;9.204;2023-04-10T02:41:30;99257.03;;;4.19;100.00
13765;BME280;6953;48.810;9.204;2023-04-10T02:43:56;99399.75;;;4.74;100.00
13765;BME280;6953;48.810;9.204;2023-04-10T02:46:21;99349.44;;;4.78;100.00
13765;BME280;6953;48.810;9.204;2023-04-10T02:48:47;99344.28;;;4.75;100.00
13765;BME280;6953;48.810;9.204;2023-04-10T02:51:13;99316.69;;;4.69;100.00
13765;BME280;6953;48.810;9.204;2023-04-10T02:53:38;99357.94;;;4.86;100.00
13765;BME280;6953;48.810;9.204;2023-04-10T02:56:04;99349.47;;;4.76;100.00
13765;BME280;6953;48.810;9.204;2023-04-10T02:58:33;99062.84;;;3.06;100.00
13765;BME280;6953;48.810;9.204;2023-04-10T03:01:00;99304.22;;;4.42;100.00
13765;BME280;6953;48.810;9.204;2023-04-10T03:03:25;99361.75;;;4.68;100.00
13765;BME280;6953;48.810;9.204;2023-04-10T03:05:52;99362.63;;;4.67;100.00
13765;BME280;6953;48.810;9.204;2023-04-10T03:08:17;99365.31;;;4.63;100.00
13765;BME280;6953;48.810;9.204;2023-04-10T03:10:44;99346.78;;;4.35;100.00
13765;BME280;6953;48.810;9.204;2023-04-10T03:13:10;99343.03;;;4.51;100.00
13765;BME280;6953;48.810;9.204;2023-04-10T03:15:36;99338.03;;;4.39;100.00
13765;BME280;6953;48.810;9.204;2023-04-10T03:18:02;99345.78;;;4.44;100.00
13765;BME280;6953;48.810;9.204;2023-04-10T03:20:28;99332.13;;;4.31;100.00
13765;BME280;6953;48.810;9.204;2023-04-10T03:22:53;99319.25;;;4.27;100.00
13765;BME280;6953;48.810;9.204;2023-04-10T03:25:18;99339.84;;;4.36;100.00
13765;BME280;6953;48.810;9.204;2023-04-10T03:27:44;99327.84;;;4.30;100.00
13765;BME280;6953;48.810;9.204;2023-04-10T03:30:09;99364.06;;;4.38;100.00
13765;BME280;6953;48.810;9.204;2023-04-10T03:32:35;99269.56;;;3.98;100.00
13765;BME280;6953;48.810;9.204;2023-04-10T03:35:01;99038.63;;;2.58;100.00
13765;BME280;6953;48.810;9.204;2023-04-10T03:37:26;98991.63;;;2.29;100.00
13765;BME280;6953;48.810;9.204;2023-04-10T03:39:52;99323.66;;;4.20;100.00
13765;BME280;6953;48.810;9.204;2023-04-10T03:42:17;99372.91;;;4.28;100.00
13765;BME280;6953;48.810;9.204;2023-04-10T03:44:43;99351.25;;;4.27;100.00
13765;BME280;6953;48.810;9.204;2023-04-10T03:47:08;99329.59;;;4.28;100.00
13765;BME280;6953;48.810;9.204;2023-04-10T03:49:33;99330.81;;;4.08;100.00
13765;BME280;6953;48.810;9.204;2023-04-10T03:51:58;99259.13;;;4.01;100.00
13765;BME280;6953;48.810;9.204;2023-04-10T03:54:24;99225.78;;;3.79;100.00
13765;BME280;6953;48.810;9.204;2023-04-10T03:56:49;99304.56;;;4.24;100.00
13765;BME280;6953;48.810;9.204;2023-04-10T03:59:15;99298.69;;;4.15;100.00
13765;BME280;6953;48.810;9.204;2023-04-10T04:01:40;99316.75;;;4.19;100.00
13765;BME280;6953;48.810;9.204;2023-04-10T04:04:05;99263.63;;;3.92;100.00
13765;BME280;6953;48.810;9.204;2023-04-10T04:06:30;99104.47;;;2.98;100.00
13765;BME280;6953;48.810;9.204;2023-04-10T04:08:56;99041.13;;;2.64;100.00
13765;BME280;6953;48.810;9.204;2023-04-10T04:11:21;99329.59;;;4.28;100.00
13765;BME280;6953;48.810;9.204;2023-04-10T04:13:47;99325.28;;;4.27;100.00
13765;BME280;6953;48.810;9.204;2023-04-10T04:16:12;99210.53;;;3.62;100.00
13765;BME280;6953;48.810;9.204;2023-04-10T04:18:37;99122.47;;;3.05;100.00
13765;BME280;6953;48.810;9.204;2023-04-10T04:21:03;99247.31;;;3.85;100.00
13765;BME280;6953;48.810;9.204;2023-04-10T04:23:28;99015.47;;;2.50;100.00
13765;BME280;6953;48.810;9.204;2023-04-10T04:25:54;99224.19;;;3.72;100.00
13765;BME280;6953;48.810;9.204;2023-04-10T04:28:21;99313.22;;;4.23;100.00
13765;BME280;6953;48.810;9.204;2023-04-10T04:30:47;99315.88;;;4.20;100.00
13765;BME280;6953;48.810;9.204;2023-04-10T04:33:12;99331.44;;;4.22;100.00
13765;BME280;6953;48.810;9.204;2023-04-10T04:35:37;99304.69;;;4.17;100.00
13765;BME280;6953;48.810;9.204;2023-04-10T04:38:03;99332.16;;;4.30;100.00
13765;BME280;6953;48.810;9.204;2023-04-10T04:40:28;99306.19;;;4.30;100.00
13765;BME280;6953;48.810;9.204;2023-04-10T04:42:53;99154.56;;;3.48;100.00
13765;BME280;6953;48.810;9.204;2023-04-10T04:45:18;99027.94;;;2.77;100.00
13765;BME280;6953;48.810;9.204;2023-04-10T04:47:46;99324.94;;;4.47;100.00
13765;BME280;6953;48.810;9.204;2023-04-10T04:50:11;99117.63;;;3.35;100.00
13765;BME280;6953;48.810;9.204;2023-04-10T04:52:36;99311.78;;;4.54;100.00
13765;BME280;6953;48.810;9.204;2023-04-10T04:55:01;99312.53;;;4.59;100.00
13765;BME280;6953;48.810;9.204;2023-04-10T04:57:27;99350.47;;;4.69;100.00
13765;BME280;6953;48.810;9.204;2023-04-10T04:59:52;99133.28;;;3.76;100.00
13765;BME280;6953;48.810;9.204;2023-04-10T05:02:19;99018.56;;;3.18;100.00
13765;BME280;6953;48.810;9.204;2023-04-10T05:04:46;99100.50;;;3.72;100.00
13765;BME280;6953;48.810;9.204;2023-04-10T05:07:12;99317.19;;;4.88;100.00
13765;BME280;6953;48.810;9.204;2023-04-10T05:09:37;99315.88;;;5.10;100.00
13765;BME280;6953;48.810;9.204;2023-04-10T05:12:02;99200.16;;;4.51;100.00
13765;BME280;6953;48.810;9.204;2023-04-10T05:14:28;99327.72;;;5.22;100.00
13765;BME280;6953;48.810;9.204;2023-04-10T05:16:53;99316.91;;;5.40;100.00
13765;BME280;6953;48.810;9.204;2023-04-10T05:19:19;99310.50;;;5.55;100.00
13765;BME280;6953;48.810;9.204;2023-04-10T05:21:45;99306.75;;;5.66;100.00
13765;BME280;6953;48.810;9.204;2023-04-10T05:24:10;99086.63;;;4.55;100.00
13765;BME280;6953;48.810;9.204;2023-04-10T05:26:36;98886.53;;;3.52;100.00
13765;BME280;6953;48.810;9.204;2023-04-10T05:29:02;99280.06;;;5.93;100.00
13765;BME280;6953;48.810;9.204;2023-04-10T05:31:28;99340.78;;;6.30;100.00
13765;BME280;6953;48.810;9.204;2023-04-10T05:33:53;99314.31;;;6.45;99.83
13765;BME280;6953;48.810;9.204;2023-04-10T05:36:19;99291.47;;;6.54;98.76
13765;BME280;6953;48.810;9.204;2023-04-10T05:38:44;99038.88;;;5.28;97.35
13765;BME280;6953;48.810;9.204;2023-04-10T05:41:10;99308.94;;;7.12;97.04
13765;BME280;6953;48.810;9.204;2023-04-10T05:43:35;99044.38;;;5.80;95.21
13765;BME280;6953;48.810;9.204;2023-04-10T05:46:00;99314.44;;;7.59;95.36
13765;BME280;6953;48.810;9.204;2023-04-10T05:48:26;99280.28;;;7.65;94.05
13765;BME280;6953;48.810;9.204;2023-04-10T05:50:52;99319.78;;;8.08;93.23
13765;BME280;6953;48.810;9.204;2023-04-10T05:53:19;99298.16;;;8.30;92.03
13765;BME280;6953;48.810;9.204;2023-04-10T05:55:44;99098.03;;;7.24;90.91
13765;BME280;6953;48.810;9.204;2023-04-10T05:58:09;99285.06;;;8.79;89.73
13765;BME280;6953;48.810;9.204;2023-04-10T06:00:35;99350.53;;;9.25;87.36
13765;BME280;6953;48.810;9.204;2023-04-10T06:03:02;99025.72;;;7.99;85.58
13765;BME280;6953;48.810;9.204;2023-04-10T06:05:27;99131.47;;;9.04;83.34
13765;BME280;6953;48.810;9.204;2023-04-10T06:07:52;99208.78;;;9.96;80.53
13765;BME280;6953;48.810;9.204;2023-04-10T06:10:18;99300.16;;;10.86;77.52
13765;BME280;6953;48.810;9.204;2023-04-10T06:12:43;99104.50;;;10.04;75.72
13765;BME280;6953;48.810;9.204;2023-04-10T06:15:09;99311.53;;;11.62;74.09
13765;BME280;6953;48.810;9.204;2023-04-10T06:17:40;99310.31;;;12.04;70.39
13765;BME280;6953;48.810;9.204;2023-04-10T06:20:07;99131.19;;;11.41;69.23
13765;BME280;6953;48.810;9.204;2023-04-10T06:22:32;99312.72;;;12.76;67.76
13765;BME280;6953;48.810;9.204;2023-04-10T06:24:57;99314.03;;;12.85;66.09
13765;BME280;6953;48.810;9.204;2023-04-10T06:27:23;99263.97;;;12.69;64.97
13765;BME280;6953;48.810;9.204;2023-04-10T06:29:48;99310.41;;;13.04;64.66
13765;BME280;6953;48.810;9.204;2023-04-10T06:32:14;99298.38;;;13.16;62.86
13765;BME280;6953;48.810;9.204;2023-04-10T06:34:39;99259.31;;;13.24;61.80
13765;BME280;6953;48.810;9.204;2023-04-10T06:37:05;99300.78;;;13.66;60.89
13765;BME280;6953;48.810;9.204;2023-04-10T06:39:30;99315.09;;;13.93;59.12
13765;BME280;6953;48.810;9.204;2023-04-10T06:41:55;99300.03;;;14.26;57.26
13765;BME280;6953;48.810;9.204;2023-04-10T06:44:21;99232.50;;;14.07;56.03
13765;BME280;6953;48.810;9.204;2023-04-10T06:46:47;99293.31;;;14.93;55.14
13765;BME280;6953;48.810;9.204;2023-04-10T06:49:12;99292.00;;;15.56;53.25
13765;BME280;6953;48.810;9.204;2023-04-10T06:51:38;99231.03;;;15.98;50.50
13765;BME280;6953;48.810;9.204;2023-04-10T06:54:03;99295.56;;;17.12;48.00
13765;BME280;6953;48.810;9.204;2023-04-10T06:56:28;99104.72;;;16.62;45.93
13765;BME280;6953;48.810;9.204;2023-04-10T06:58:54;99284.41;;;18.39;43.83
13765;BME280;6953;48.810;9.204;2023-04-10T07:01:19;99253.00;;;18.79;41.70
13765;BME280;6953;48.810;9.204;2023-04-10T07:03:44;99312.97;;;19.61;38.74
13765;BME280;6953;48.810;9.204;2023-04-10T07:06:10;99300.06;;;20.20;37.18
13765;BME280;6953;48.810;9.204;2023-04-10T07:08:36;99304.19;;;21.07;34.49
13765;BME280;6953;48.810;9.204;2023-04-10T07:11:01;99223.94;;;21.59;32.95
13765;BME280;6953;48.810;9.204;2023-04-10T07:13:26;99284.31;;;22.58;31.12
13765;BME280;6953;48.810;9.204;2023-04-10T07:15:52;99302.03;;;23.15;29.86
13765;BME280;6953;48.810;9.204;2023-04-10T07:18:17;99297.59;;;23.79;28.51
13765;BME280;6953;48.810;9.204;2023-04-10T07:20:42;99296.66;;;24.24;27.88
13765;BME280;6953;48.810;9.204;2023-04-10T07:23:08;99112.56;;;23.89;26.37
13765;BME280;6953;48.810;9.204;2023-04-10T07:25:33;99304.69;;;25.80;25.22
13765;BME280;6953;48.810;9.204;2023-04-10T07:27:58;99293.16;;;26.52;23.36
13765;BME280;6953;48.810;9.204;2023-04-10T07:30:24;99123.00;;;25.93;22.19
13765;BME280;6953;48.810;9.204;2023-04-10T07:32:49;99329.72;;;27.43;21.58
13765;BME280;6953;48.810;9.204;2023-04-10T07:35:15;99331.00;;;27.86;21.60
13765;BME280;6953;48.810;9.204;2023-04-10T07:37:40;99339.00;;;28.18;20.68
13765;BME280;6953;48.810;9.204;2023-04-10T07:40:08;99135.44;;;26.02;21.01
13765;BME280;6953;48.810;9.204;2023-04-10T07:42:34;99354.50;;;26.90;21.71
13765;BME280;6953;48.810;9.204;2023-04-10T07:44:59;99140.22;;;26.48;20.58
13765;BME280;6953;48.810;9.204;2023-04-10T07:47:24;99294.22;;;27.23;20.56
13765;BME280;6953;48.810;9.204;2023-04-10T07:49:50;99335.47;;;27.24;21.14
13765;BME280;6953;48.810;9.204;2023-04-10T07:52:15;99158.03;;;26.33;21.30
13765;BME280;6953;48.810;9.204;2023-04-10T07:54:41;99338.88;;;28.04;20.92
13765;BME280;6953;48.810;9.204;2023-04-10T07:57:06;99304.88;;;28.56;20.16
13765;BME280;6953;48.810;9.204;2023-04-10T07:59:31;99343.84;;;29.14;19.45
13765;BME280;6953;48.810;9.204;2023-04-10T08:01:57;99313.88;;;29.38;18.70
13765;BME280;6953;48.810;9.204;2023-04-10T08:04:22;99335.97;;;29.92;18.15
13765;BME280;6953;48.810;9.204;2023-04-10T08:06:47;99258.41;;;29.70;18.22
13765;BME280;6953;48.810;9.204;2023-04-10T08:09:14;99334.16;;;30.92;17.37
13765;BME280;6953;48.810;9.204;2023-04-10T08:11:39;99143.41;;;29.31;17.43
13765;BME280;6953;48.810;9.204;2023-04-10T08:14:05;99339.78;;;29.69;17.92
13765;BME280;6953;48.810;9.204;2023-04-10T08:16:33;99339.22;;;29.45;18.03
13765;BME280;6953;48.810;9.204;2023-04-10T08:19:00;99361.03;;;29.21;18.21
13765;BME280;6953;48.810;9.204;2023-04-10T08:21:27;99329.72;;;29.92;17.83
13765;BME280;6953;48.810;9.204;2023-04-10T08:23:54;99339.59;;;30.57;17.72
13765;BME280;6953;48.810;9.204;2023-04-10T08:26:20;99354.66;;;30.80;17.11
13765;BME280;6953;48.810;9.204;2023-04-10T08:28:49;99347.13;;;30.12;16.88
13765;BME280;6953;48.810;9.204;2023-04-10T08:31:19;99343.53;;;29.68;17.31
13765;BME280;6953;48.810;9.204;2023-04-10T08:33:45;99315.31;;;28.89;17.75
13765;BME280;6953;48.810;9.204;2023-04-10T08:36:11;99245.59;;;27.63;18.32
13765;BME280;6953;48.810;9.204;2023-04-10T08:38:37;99117.97;;;26.62;19.09
13765;BME280;6953;48.810;9.204;2023-04-10T08:41:04;99326.16;;;28.20;17.95
13765;BME280;6953;48.810;9.204;2023-04-10T08:43:30;99347.22;;;28.63;17.58
13765;BME280;6953;48.810;9.204;2023-04-10T08:45:55;99187.03;;;27.33;18.15
13765;BME280;6953;48.810;9.204;2023-04-10T08:48:25;99326.53;;;27.71;18.23
13765;BME280;6953;48.810;9.204;2023-04-10T08:50:57;99268.72;;;27.57;18.23
13765;BME280;6953;48.810;9.204;2023-04-10T08:53:29;99313.56;;;29.33;17.61
13765;BME280;6953;48.810;9.204;2023-04-10T08:55:55;99261.66;;;31.28;15.70
13765;BME280;6953;48.810;9.204;2023-04-10T08:58:23;99323.97;;;31.64;15.21
13765;BME280;6953;48.810;9.204;2023-04-10T09:00:48;99321.28;;;31.70;15.05
13765;BME280;6953;48.810;9.204;2023-04-10T09:03:16;99314.13;;;31.96;14.97
13765;BME280;6953;48.810;9.204;2023-04-10T09:05:41;99323.75;;;32.26;14.85
13765;BME280;6953;48.810;9.204;2023-04-10T09:08:07;99316.50;;;32.53;14.34
13765;BME280;6953;48.810;9.204;2023-04-10T09:10:33;99326.19;;;32.62;14.51
13765;BME280;6953;48.810;9.204;2023-04-10T09:12:58;99147.41;;;31.85;13.76
13765;BME280;6953;48.810;9.204;2023-04-10T09:15:24;99258.72;;;32.25;14.51
13765;BME280;6953;48.810;9.204;2023-04-10T09:18:02;99303.56;;;32.61;13.42
13765;BME280;6953;48.810;9.204;2023-04-10T09:20:31;99185.47;;;31.57;14.12
13765;BME280;6953;48.810;9.204;2023-04-10T09:22:56;99323.59;;;32.07;14.10
13765;BME280;6953;48.810;9.204;2023-04-10T09:25:34;99263.16;;;31.92;14.01
13765;BME280;6953;48.810;9.204;2023-04-10T09:28:04;99143.84;;;30.82;14.51
13765;BME280;6953;48.810;9.204;2023-04-10T09:30:40;99276.13;;;32.37;13.68
13765;BME280;6953;48.810;9.204;2023-04-10T09:33:25;99316.59;;;32.72;13.58
13765;BME280;6953;48.810;9.204;2023-04-10T09:35:58;99252.22;;;32.99;13.16
13765;BME280;6953;48.810;9.204;2023-04-10T09:38:28;99223.72;;;33.66;13.28
13765;BME280;6953;48.810;9.204;2023-04-10T09:41:05;99262.88;;;34.96;12.53
13765;BME280;6953;48.810;9.204;2023-04-10T09:43:31;99127.56;;;34.89;11.51
13765;BME280;6953;48.810;9.204;2023-04-10T09:45:56;99296.47;;;35.27;11.54
13765;BME280;6953;48.810;9.204;2023-04-10T09:48:23;99246.69;;;35.01;11.53
13765;BME280;6953;48.810;9.204;2023-04-10T09:50:48;99277.81;;;36.09;11.53
13765;BME280;6953;48.810;9.204;2023-04-10T09:53:15;99280.81;;;36.08;11.39
13765;BME280;6953;48.810;9.204;2023-04-10T09:55:43;99229.09;;;36.06;10.83
13765;BME280;6953;48.810;9.204;2023-04-10T09:58:10;99291.59;;;35.36;10.89
13765;BME280;6953;48.810;9.204;2023-04-10T10:00:42;99268.28;;;34.41;11.43
13765;BME280;6953;48.810;9.204;2023-04-10T10:03:10;99099.25;;;33.73;11.57
13765;BME280;6953;48.810;9.204;2023-04-10T10:05:38;99263.09;;;34.26;11.71
13765;BME280;6953;48.810;9.204;2023-04-10T10:08:04;99219.72;;;34.62;11.70
13765;BME280;6953;48.810;9.204;2023-04-10T10:10:30;99276.16;;;36.08;10.81
13765;BME280;6953;48.810;9.204;2023-04-10T10:12:58;99254.06;;;35.92;11.18
13765;BME280;6953;48.810;9.204;2023-04-10T10:15:35;99251.72;;;35.53;10.78
13765;BME280;6953;48.810;9.204;2023-04-10T10:20:33;99192.13;;;37.15;10.11
13765;BME280;6953;48.810;9.204;2023-04-10T10:23:01;99198.31;;;37.10;10.41
13765;BME280;6953;48.810;9.204;2023-04-10T10:25:27;99240.72;;;37.53;9.62
13765;BME280;6953;48.810;9.204;2023-04-10T10:27:54;99068.91;;;37.03;9.80
13765;BME280;6953;48.810;9.204;2023-04-10T10:30:20;99227.13;;;37.93;9.47
13765;BME280;6953;48.810;9.204;2023-04-10T10:32:46;99224.66;;;37.91;9.84
13765;BME280;6953;48.810;9.204;2023-04-10T10:35:13;99224.03;;;38.01;9.73
13765;BME280;6953;48.810;9.204;2023-04-10T10:37:39;99202.94;;;37.67;9.63
13765;BME280;6953;48.810;9.204;2023-04-10T10:40:19;99207.00;;;37.30;9.92
13765;BME280;6953;48.810;9.204;2023-04-10T10:46:03;99195.53;;;38.02;9.26
13765;BME280;6953;48.810;9.204;2023-04-10T10:48:30;99189.72;;;37.64;9.86
13765;BME280;6953;48.810;9.204;2023-04-10T10:50:58;99190.69;;;36.60;10.28
13765;BME280;6953;48.810;9.204;2023-04-10T10:56:32;99195.50;;;34.41;11.48
13765;BME280;6953;48.810;9.204;2023-04-10T10:58:57;99110.94;;;33.16;12.16
13765;BME280;6953;48.810;9.204;2023-04-10T11:01:23;99170.56;;;32.60;12.15
13765;BME280;6953;48.810;9.204;2023-04-10T11:03:49;98953.97;;;31.03;12.47
13765;BME280;6953;48.810;9.204;2023-04-10T11:06:16;98995.81;;;31.28;12.92
13765;BME280;6953;48.810;9.204;2023-04-10T11:14:10;99159.31;;;33.14;12.30
13765;BME280;6953;48.810;9.204;2023-04-10T11:21:25;99024.91;;;34.94;10.35
13765;BME280;6953;48.810;9.204;2023-04-10T11:29:05;99084.97;;;35.95;9.51
13765;BME280;6953;48.810;9.204;2023-04-10T11:31:31;99164.91;;;36.79;9.40
13765;BME280;6953;48.810;9.204;2023-04-10T11:34:05;98976.00;;;35.99;9.05
13765;BME280;6953;48.810;9.204;2023-04-10T11:36:31;99092.25;;;37.17;8.96
13765;BME280;6953;48.810;9.204;2023-04-10T11:41:28;99168.13;;;36.76;9.09
13765;BME280;6953;48.810;9.204;2023-04-10T11:43:55;99146.63;;;37.37;9.06
13765;BME280;6953;48.810;9.204;2023-04-10T11:46:21;99150.84;;;37.78;8.71
13765;BME280;6953;48.810;9.204;2023-04-10T11:48:46;98965.00;;;37.92;8.29
13765;BME280;6953;48.810;9.204;2023-04-10T11:51:12;99128.44;;;38.65;7.99
13765;BME280;6953;48.810;9.204;2023-04-10T11:53:39;99142.97;;;38.65;8.29
13765;BME280;6953;48.810;9.204;2023-04-10T11:56:04;99135.47;;;39.43;7.98
13765;BME280;6953;48.810;9.204;2023-04-10T11:58:31;99148.41;;;40.07;7.22
13765;BME280;6953;48.810;9.204;2023-04-10T12:01:02;99091.06;;;39.73;6.89
13765;BME280;6953;48.810;9.204;2023-04-10T12:05:57;99135.78;;;39.47;7.20
13765;BME280;6953;48.810;9.204;2023-04-10T12:08:32;99017.44;;;39.53;6.82
13765;BME280;6953;48.810;9.204;2023-04-10T12:10:58;99060.53;;;40.48;6.59
13765;BME280;6953;48.810;9.204;2023-04-10T12:13:25;98928.06;;;39.51;6.67
13765;BME280;6953;48.810;9.204;2023-04-10T12:15:52;99116.91;;;40.19;6.93
13765;BME280;6953;48.810;9.204;2023-04-10T12:18:18;99111.63;;;40.13;7.26
13765;BME280;6953;48.810;9.204;2023-04-10T12:20:43;99067.25;;;39.19;6.80
13765;BME280;6953;48.810;9.204;2023-04-10T12:23:09;98948.13;;;38.16;6.98
13765;BME280;6953;48.810;9.204;2023-04-10T12:25:35;99060.50;;;38.11;7.18
13765;BME280;6953;48.810;9.204;2023-04-10T12:28:00;99115.38;;;38.11;6.88
13765;BME280;6953;48.810;9.204;2023-04-10T12:30:26;99062.59;;;37.65;7.07
13765;BME280;6953;48.810;9.204;2023-04-10T12:32:51;99040.84;;;37.36;7.06
13765;BME280;6953;48.810;9.204;2023-04-10T12:35:36;99111.13;;;36.73;7.06
13765;BME280;6953;48.810;9.204;2023-04-10T12:38:01;99113.19;;;36.37;7.26
13765;BME280;6953;48.810;9.204;2023-04-10T12:40:27;99103.16;;;36.19;7.46
13765;BME280;6953;48.810;9.204;2023-04-10T12:42:52;99103.03;;;35.96;7.72
13765;BME280;6953;48.810;9.204;2023-04-10T12:45:17;99100.84;;;35.57;8.00
13765;BME280;6953;48.810;9.204;2023-04-10T12:47:46;99084.97;;;35.48;7.64
13765;BME280;6953;48.810;9.204;2023-04-10T12:50:14;99073.38;;;35.82;7.97
13765;BME280;6953;48.810;9.204;2023-04-10T12:52:42;98893.75;;;33.01;8.72
13765;BME280;6953;48.810;9.204;2023-04-10T12:55:19;99096.31;;;32.20;9.71
13765;BME280;6953;48.810;9.204;2023-04-10T12:57:48;98901.91;;;29.79;10.36
13765;BME280;6953;48.810;9.204;2023-04-10T13:00:17;98977.84;;;29.50;10.84
13765;BME280;6953;48.810;9.204;2023-04-10T13:02:43;98896.91;;;28.92;11.04
13765;BME280;6953;48.810;9.204;2023-04-10T13:05:09;99043.59;;;29.92;11.08
13765;BME280;6953;48.810;9.204;2023-04-10T13:07:36;99062.09;;;29.68;11.20
13765;BME280;6953;48.810;9.204;2023-04-10T13:10:01;99015.19;;;28.25;11.96
13765;BME280;6953;48.810;9.204;2023-04-10T13:12:27;99054.34;;;28.21;12.15
13765;BME280;6953;48.810;9.204;2023-04-10T13:14:54;99051.00;;;27.74;12.05
13765;BME280;6953;48.810;9.204;2023-04-10T13:17:20;99008.09;;;27.34;12.36
13765;BME280;6953;48.810;9.204;2023-04-10T13:19:46;99018.81;;;27.50;12.28
13765;BME280;6953;48.810;9.204;2023-04-10T13:22:11;98881.13;;;27.29;12.28
13765;BME280;6953;48.810;9.204;2023-04-10T13:24:37;99013.75;;;28.80;12.58
13765;BME280;6953;48.810;9.204;2023-04-10T13:27:03;98998.53;;;28.79;12.23
13765;BME280;6953;48.810;9.204;2023-04-10T13:29:28;98999.38;;;28.65;12.25
13765;BME280;6953;48.810;9.204;2023-04-10T13:31:54;99014.09;;;28.62;12.40
13765;BME280;6953;48.810;9.204;2023-04-10T13:34:19;98989.34;;;29.23;12.01
13765;BME280;6953;48.810;9.204;2023-04-10T13:36:45;98990.00;;;29.61;11.69
13765;BME280;6953;48.810;9.204;2023-04-10T13:39:10;98993.88;;;29.52;12.18
13765;BME280;6953;48.810;9.204;2023-04-10T13:41:36;98999.78;;;29.41;12.23
13765;BME280;6953;48.810;9.204;2023-04-10T13:44:01;98998.66;;;29.00;12.20